Time;durP1;ratioP1;P1;durP2;ratioP2;P2;SDS_P1;SDS_P2;PMS_P1;PMS_P2;Temp;Humidity;BMP_temperature;BMP_pressure;BME280_temperature;BME280_humidity;BME280_pressure;Samples;Min_cycle;Max_cycle;Signal;HPM_P1;HPM_P2
2023/09/26 00:01:04;;;;;;;5.78;4.20;;;;;;;;;;5013416;28;20034;-75
2023/09/26 00:03:30;;;;;;;7.00;3.78;;;;;;;;;;5013406;28;20034;-75
2023/09/26 00:05:55;;;;;;;5.15;3.50;;;;;;;;;;5012118;28;20025;-75
2023/09/26 00:08:21;;;;;;;6.50;4.18;;;;;;;;;;5013419;28;20112;-75
2023/09/26 00:10:46;;;;;;;7.97;4.22;;;;;;;;;;5013294;28;20041;-76
2023/09/26 00:13:13;;;;;;;4.78;3.80;;;;;;;;;;5013362;28;20374;-74
2023/09/26 00:15:38;;;;;;;5.13;4.10;;;;;;;;;;5013287;28;20030;-75
2023/09/26 00:18:05;;;;;;;5.50;3.78;;;;;;;;;;5013314;28;20029;-75
2023/09/26 00:20:32;;;;;;;4.72;3.67;;;;;;;;;;5013228;28;20057;-75
2023/09/26 00:22:58;;;;;;;5.07;3.92;;;;;;;;;;5013146;28;20026;-75
2023/09/26 00:25:24;;;;;;;7.07;3.80;;;;;;;;;;5013347;28;20032;-75
2023/09/26 00:27:49;;;;;;;5.80;3.88;;;;;;;;;;5013538;28;20025;-75
2023/09/26 00:30:15;;;;;;;5.95;3.92;;;;;;;;;;5011914;28;20446;-77
2023/09/26 00:32:41;;;;;;;6.90;3.63;;;;;;;;;;5013353;28;20033;-76
2023/09/26 00:35:13;;;;;;;6.25;3.80;;;;;;;;;;5013169;28;20018;-75
2023/09/26 00:37:43;;;;;;;5.68;3.67;;;;;;;;;;5011936;28;20026;-76
2023/09/26 00:40:18;;;;;;;4.20;3.63;;;;;;;;;;5015441;28;20057;-75
2023/09/26 00:42:44;;;;;;;5.70;3.88;;;;;;;;;;5017190;28;20061;-75
2023/09/26 00:45:10;;;;;;;6.60;3.63;;;;;;;;;;5015767;28;20053;-75
2023/09/26 00:47:35;;;;;;;6.68;3.70;;;;;;;;;;5015762;28;20025;-75
2023/09/26 00:50:11;;;;;;;5.35;3.95;;;;;;;;;;5017183;28;20029;-75
2023/09/26 00:52:39;;;;;;;7.25;3.50;;;;;;;;;;5017142;28;20090;-76
2023/09/26 00:55:05;;;;;;;6.63;3.92;;;;;;;;;;5016842;28;20068;-75
2023/09/26 00:57:33;;;;;;;6.72;4.18;;;;;;;;;;5015559;28;20061;-76
2023/09/26 01:00:00;;;;;;;5.22;4.13;;;;;;;;;;5017064;28;20489;-75
2023/09/26 01:02:26;;;;;;;5.40;4.07;;;;;;;;;;5016821;28;20026;-76
2023/09/26 01:04:51;;;;;;;8.20;4.22;;;;;;;;;;5016615;28;20083;-75
2023/09/26 01:07:17;;;;;;;7.70;4.20;;;;;;;;;;5016707;28;20025;-75
2023/09/26 01:09:42;;;;;;;6.30;4.15;;;;;;;;;;5016701;28;20025;-75
2023/09/26 01:12:08;;;;;;;7.07;4.35;;;;;;;;;;5016514;28;20041;-75
2023/09/26 01:14:34;;;;;;;5.35;4.05;;;;;;;;;;5016789;28;20430;-75
2023/09/26 01:16:59;;;;;;;6.53;4.50;;;;;;;;;;5016565;28;20116;-75
2023/09/26 01:19:24;;;;;;;8.18;3.95;;;;;;;;;;5016754;28;20029;-75
2023/09/26 01:21:49;;;;;;;5.35;3.70;;;;;;;;;;5016331;28;20036;-75
2023/09/26 01:24:17;;;;;;;5.00;3.80;;;;;;;;;;5014999;28;20065;-75
2023/09/26 01:26:42;;;;;;;5.75;4.00;;;;;;;;;;5015897;28;20080;-74
2023/09/26 01:29:10;;;;;;;7.25;4.40;;;;;;;;;;5016595;28;20022;-74
2023/09/26 01:31:35;;;;;;;7.45;3.75;;;;;;;;;;5014955;28;20045;-75
2023/09/26 01:34:02;;;;;;;7.32;3.97;;;;;;;;;;5016261;28;20030;-74
2023/09/26 01:36:27;;;;;;;7.07;3.78;;;;;;;;;;5016153;28;20076;-74
2023/09/26 01:38:54;;;;;;;7.20;3.88;;;;;;;;;;5014916;28;20030;-73
2023/09/26 01:41:21;;;;;;;5.05;4.00;;;;;;;;;;5016109;28;20542;-75
2023/09/26 01:43:46;;;;;;;4.40;3.90;;;;;;;;;;5016170;28;20473;-75
2023/09/26 01:46:12;;;;;;;10.37;4.03;;;;;;;;;;5016058;28;20033;-75
2023/09/26 01:48:37;;;;;;;4.65;3.55;;;;;;;;;;5015851;28;20260;-74
2023/09/26 01:51:05;;;;;;;5.90;4.18;;;;;;;;;;5015729;28;20112;-76
2023/09/26 01:53:30;;;;;;;6.07;4.03;;;;;;;;;;5015836;28;20128;-74
2023/09/26 01:55:59;;;;;;;8.25;4.10;;;;;;;;;;5015910;28;20489;-75
2023/09/26 01:58:24;;;;;;;5.88;3.88;;;;;;;;;;5015861;28;20022;-75
2023/09/26 02:00:50;;;;;;;5.25;3.92;;;;;;;;;;5015763;28;20141;-75
2023/09/26 02:03:15;;;;;;;5.28;4.13;;;;;;;;;;5014362;28;20038;-75
2023/09/26 02:05:40;;;;;;;7.13;3.70;;;;;;;;;;5015533;28;20037;-74
2023/09/26 02:08:05;;;;;;;5.70;4.07;;;;;;;;;;5015641;28;20260;-74
2023/09/26 02:10:31;;;;;;;6.20;4.03;;;;;;;;;;5014206;28;20263;-74
2023/09/26 02:12:57;;;;;;;4.65;4.05;;;;;;;;;;5015429;28;20634;-74
2023/09/26 02:15:22;;;;;;;10.50;4.40;;;;;;;;;;5015640;28;20026;-74
2023/09/26 02:17:47;;;;;;;4.85;3.85;;;;;;;;;;5013822;28;20091;-73
2023/09/26 02:20:16;;;;;;;5.10;3.92;;;;;;;;;;5013506;28;20108;-72
2023/09/26 02:22:45;;;;;;;8.77;3.90;;;;;;;;;;5012745;28;20080;-74
2023/09/26 02:25:12;;;;;;;5.32;3.65;;;;;;;;;;5015052;28;20037;-74
2023/09/26 02:27:38;;;;;;;6.47;3.83;;;;;;;;;;5015527;28;20051;-74
2023/09/26 02:30:05;;;;;;;5.20;4.00;;;;;;;;;;5013855;28;20140;-74
2023/09/26 02:32:34;;;;;;;6.00;4.18;;;;;;;;;;5015027;28;20097;-74
2023/09/26 02:34:59;;;;;;;6.35;4.28;;;;;;;;;;5015252;28;20018;-74
2023/09/26 02:37:25;;;;;;;7.18;4.28;;;;;;;;;;5015029;28;20033;-74
2023/09/26 02:39:50;;;;;;;6.45;4.05;;;;;;;;;;5014901;28;20021;-75
2023/09/26 02:42:15;;;;;;;5.85;4.35;;;;;;;;;;5013631;28;20026;-75
2023/09/26 02:44:40;;;;;;;5.67;4.20;;;;;;;;;;5014968;28;20117;-76
2023/09/26 02:47:06;;;;;;;4.78;3.70;;;;;;;;;;5014878;28;20263;-74
2023/09/26 02:49:31;;;;;;;5.10;3.80;;;;;;;;;;5014060;28;20032;-74
2023/09/26 02:51:56;;;;;;;6.68;3.95;;;;;;;;;;5014769;28;20030;-74
2023/09/26 02:54:21;;;;;;;7.55;4.25;;;;;;;;;;5014913;28;20388;-74
2023/09/26 02:56:47;;;;;;;5.20;4.10;;;;;;;;;;5014688;28;20025;-74
2023/09/26 02:59:13;;;;;;;5.95;4.25;;;;;;;;;;5014645;28;20022;-74
2023/09/26 03:01:38;;;;;;;6.88;3.92;;;;;;;;;;5012760;28;20080;-74
2023/09/26 03:04:03;;;;;;;5.63;4.18;;;;;;;;;;5014703;28;20038;-74
2023/09/26 03:06:29;;;;;;;6.53;4.43;;;;;;;;;;5014684;28;20389;-74
2023/09/26 03:08:54;;;;;;;5.70;4.00;;;;;;;;;;5014635;28;20083;-73
2023/09/26 03:11:19;;;;;;;6.15;3.83;;;;;;;;;;5014313;28;20033;-74
2023/09/26 03:13:44;;;;;;;6.73;4.30;;;;;;;;;;5014367;28;20022;-74
2023/09/26 03:16:13;;;;;;;7.77;4.10;;;;;;;;;;5014293;28;20255;-74
2023/09/26 03:18:39;;;;;;;7.25;3.90;;;;;;;;;;5013100;28;20265;-74
2023/09/26 03:21:07;;;;;;;6.50;4.13;;;;;;;;;;5014812;28;20477;-75
2023/09/26 03:23:33;;;;;;;8.25;4.13;;;;;;;;;;5014073;28;20026;-74
2023/09/26 03:25:58;;;;;;;6.45;4.60;;;;;;;;;;5014143;28;20101;-75
2023/09/26 03:28:24;;;;;;;7.15;4.10;;;;;;;;;;5014103;28;20493;-74
2023/09/26 03:30:49;;;;;;;7.65;4.28;;;;;;;;;;5014028;28;20030;-75
2023/09/26 03:33:14;;;;;;;6.05;4.20;;;;;;;;;;5014050;28;20109;-75
2023/09/26 03:35:39;;;;;;;6.50;3.97;;;;;;;;;;5013920;28;20026;-75
2023/09/26 03:38:05;;;;;;;5.90;3.93;;;;;;;;;;5013960;28;20025;-75
2023/09/26 03:40:31;;;;;;;5.95;4.40;;;;;;;;;;5013868;28;20263;-74
2023/09/26 03:42:56;;;;;;;6.38;3.95;;;;;;;;;;5013850;28;20053;-75
2023/09/26 03:45:22;;;;;;;9.70;3.78;;;;;;;;;;5013713;28;20025;-76
2023/09/26 03:47:47;;;;;;;6.20;3.70;;;;;;;;;;5013769;28;20034;-74
2023/09/26 03:50:13;;;;;;;4.80;3.72;;;;;;;;;;5013779;28;20080;-74
2023/09/26 03:52:38;;;;;;;6.78;4.20;;;;;;;;;;5012449;28;20025;-75
2023/09/26 03:55:03;;;;;;;5.13;4.17;;;;;;;;;;5013003;28;20061;-75
2023/09/26 03:57:35;;;;;;;4.93;3.97;;;;;;;;;;5013957;28;20306;-74
2023/09/26 04:00:12;;;;;;;9.00;4.15;;;;;;;;;;5013851;28;20029;-74
2023/09/26 04:02:38;;;;;;;9.18;4.43;;;;;;;;;;5013514;28;20034;-75
2023/09/26 04:05:04;;;;;;;6.65;4.05;;;;;;;;;;5013509;28;20477;-75
2023/09/26 04:07:30;;;;;;;10.38;4.70;;;;;;;;;;5012457;28;20397;-75
2023/09/26 04:09:57;;;;;;;8.05;4.38;;;;;;;;;;5013642;28;20017;-74
2023/09/26 04:12:22;;;;;;;7.50;4.30;;;;;;;;;;5013402;28;20405;-75
2023/09/26 04:14:47;;;;;;;7.45;4.07;;;;;;;;;;5012407;28;20030;-74
2023/09/26 04:17:13;;;;;;;6.47;4.18;;;;;;;;;;5013333;28;20029;-74
2023/09/26 04:19:38;;;;;;;7.53;4.40;;;;;;;;;;5013610;28;20473;-76
2023/09/26 04:22:03;;;;;;;5.65;4.10;;;;;;;;;;5013180;28;20026;-75
2023/09/26 04:24:29;;;;;;;5.53;3.97;;;;;;;;;;5013253;28;20030;-74
2023/09/26 04:26:54;;;;;;;5.00;3.90;;;;;;;;;;5013282;28;20492;-75
2023/09/26 04:29:20;;;;;;;10.48;4.38;;;;;;;;;;5012094;28;20022;-74
2023/09/26 04:31:45;;;;;;;6.75;4.57;;;;;;;;;;5011900;28;20068;-74
2023/09/26 04:34:11;;;;;;;5.90;4.28;;;;;;;;;;5013436;28;20049;-75
2023/09/26 04:36:36;;;;;;;6.05;4.18;;;;;;;;;;5013371;28;20065;-75
2023/09/26 04:39:01;;;;;;;6.97;4.30;;;;;;;;;;5013603;28;20030;-73
2023/09/26 04:41:26;;;;;;;7.60;4.57;;;;;;;;;;5013115;28;20264;-74
2023/09/26 04:43:52;;;;;;;6.90;3.92;;;;;;;;;;5013146;28;20026;-75
2023/09/26 04:46:17;;;;;;;6.95;4.05;;;;;;;;;;5013231;28;20393;-74
2023/09/26 04:48:44;;;;;;;6.53;4.43;;;;;;;;;;5012018;28;20388;-74
2023/09/26 04:51:14;;;;;;;5.35;4.25;;;;;;;;;;5012303;28;20026;-74
2023/09/26 04:53:40;;;;;;;10.35;4.43;;;;;;;;;;5011632;28;20362;-75
2023/09/26 04:56:06;;;;;;;6.07;4.15;;;;;;;;;;5011676;28;20440;-75
2023/09/26 04:58:32;;;;;;;4.90;4.05;;;;;;;;;;5013205;28;20108;-75
2023/09/26 05:01:00;;;;;;;5.60;4.40;;;;;;;;;;5013401;28;20053;-75
2023/09/26 05:03:26;;;;;;;7.45;4.32;;;;;;;;;;5013055;28;20029;-72
2023/09/26 05:05:52;;;;;;;7.10;4.40;;;;;;;;;;5011682;28;20080;-75
2023/09/26 05:08:17;;;;;;;7.18;4.95;;;;;;;;;;5012881;28;20030;-75
2023/09/26 05:10:42;;;;;;;6.10;4.63;;;;;;;;;;5012802;28;20500;-75
2023/09/26 05:13:08;;;;;;;5.93;4.63;;;;;;;;;;5012910;28;20469;-72
2023/09/26 05:15:34;;;;;;;7.93;4.75;;;;;;;;;;5012896;28;20037;-73
2023/09/26 05:18:00;;;;;;;9.75;4.97;;;;;;;;;;5011486;28;20124;-73
2023/09/26 05:20:25;;;;;;;8.32;4.78;;;;;;;;;;5012908;28;20037;-75
2023/09/26 05:22:51;;;;;;;6.93;4.85;;;;;;;;;;5013589;28;20037;-72
2023/09/26 05:25:17;;;;;;;5.85;4.65;;;;;;;;;;5013386;28;20068;-72
2023/09/26 05:27:45;;;;;;;9.65;5.22;;;;;;;;;;5016549;28;20487;-73
2023/09/26 05:30:12;;;;;;;7.32;4.95;;;;;;;;;;5016347;28;20021;-72
2023/09/26 05:32:39;;;;;;;11.98;5.32;;;;;;;;;;5016821;28;20454;-72
2023/09/26 05:35:06;;;;;;;8.18;4.75;;;;;;;;;;5015055;28;20112;-72
2023/09/26 05:37:32;;;;;;;9.85;5.18;;;;;;;;;;5014534;28;20041;-76
2023/09/26 05:39:58;;;;;;;9.02;4.97;;;;;;;;;;5014081;28;20061;-72
2023/09/26 05:42:25;;;;;;;10.32;5.47;;;;;;;;;;5014471;28;20049;-72
2023/09/26 05:44:51;;;;;;;8.55;5.47;;;;;;;;;;5016484;28;20030;-72
2023/09/26 05:47:16;;;;;;;11.43;5.35;;;;;;;;;;5016195;28;20033;-72
2023/09/26 05:49:41;;;;;;;10.27;5.25;;;;;;;;;;5016362;28;20098;-72
2023/09/26 05:52:07;;;;;;;9.82;5.63;;;;;;;;;;5015695;28;20022;-76
2023/09/26 05:54:33;;;;;;;8.10;5.38;;;;;;;;;;5014759;28;20029;-75
2023/09/26 05:56:59;;;;;;;8.43;5.95;;;;;;;;;;5015090;28;20025;-75
2023/09/26 05:59:24;;;;;;;8.57;5.78;;;;;;;;;;5016489;28;20025;-75
2023/09/26 06:01:49;;;;;;;9.00;5.65;;;;;;;;;;5016266;28;20389;-75
2023/09/26 06:04:15;;;;;;;8.27;5.80;;;;;;;;;;5014381;28;20038;-76
2023/09/26 06:06:40;;;;;;;12.55;6.38;;;;;;;;;;5014542;28;20032;-76
2023/09/26 06:09:05;;;;;;;11.97;6.03;;;;;;;;;;5014547;28;20101;-76
2023/09/26 06:11:30;;;;;;;15.80;5.82;;;;;;;;;;5015425;28;20279;-75
2023/09/26 06:13:56;;;;;;;13.73;6.13;;;;;;;;;;5013656;28;20548;-76
2023/09/26 06:16:21;;;;;;;12.32;6.75;;;;;;;;;;5013107;28;20033;-75
2023/09/26 06:18:47;;;;;;;12.52;6.88;;;;;;;;;;5015357;28;20366;-75
2023/09/26 06:21:14;;;;;;;15.40;6.82;;;;;;;;;;5015207;28;20024;-75
2023/09/26 06:23:43;;;;;;;10.80;6.60;;;;;;;;;;5015284;28;20026;-74
2023/09/26 06:26:08;;;;;;;10.77;6.32;;;;;;;;;;5015181;28;20032;-76
2023/09/26 06:28:34;;;;;;;13.35;6.10;;;;;;;;;;5015101;28;20025;-76
2023/09/26 06:31:06;;;;;;;9.10;5.90;;;;;;;;;;5015168;28;20026;-76
2023/09/26 06:33:32;;;;;;;19.17;6.47;;;;;;;;;;5013835;28;20084;-76
2023/09/26 06:35:58;;;;;;;9.82;6.43;;;;;;;;;;5015005;28;20022;-76
2023/09/26 06:38:23;;;;;;;14.30;6.47;;;;;;;;;;5014212;28;20362;-76
2023/09/26 06:40:48;;;;;;;20.73;7.30;;;;;;;;;;5015020;28;20030;-76
2023/09/26 06:43:13;;;;;;;13.85;7.05;;;;;;;;;;5014793;28;20270;-76
2023/09/26 06:45:39;;;;;;;14.05;6.75;;;;;;;;;;5014804;28;20030;-76
2023/09/26 06:48:07;;;;;;;8.95;6.22;;;;;;;;;;5013548;28;20443;-76
2023/09/26 06:50:33;;;;;;;10.63;6.75;;;;;;;;;;5014851;28;20156;-76
2023/09/26 06:52:58;;;;;;;11.73;6.28;;;;;;;;;;5014953;28;20101;-76
2023/09/26 06:55:23;;;;;;;11.77;6.75;;;;;;;;;;5014697;28;20477;-76
2023/09/26 06:57:48;;;;;;;10.23;7.10;;;;;;;;;;5014634;28;20131;-76
2023/09/26 07:00:16;;;;;;;11.70;7.15;;;;;;;;;;5014520;28;20021;-76
2023/09/26 07:02:46;;;;;;;12.02;8.00;;;;;;;;;;5013258;28;20029;-76
2023/09/26 07:05:11;;;;;;;14.57;7.45;;;;;;;;;;5014374;28;20121;-75
2023/09/26 07:07:37;;;;;;;14.52;7.60;;;;;;;;;;5013131;28;20160;-76
2023/09/26 07:10:04;;;;;;;17.13;8.40;;;;;;;;;;5013061;28;20030;-76
2023/09/26 07:12:30;;;;;;;14.43;7.70;;;;;;;;;;5012957;28;20028;-76
2023/09/26 07:14:56;;;;;;;14.02;7.80;;;;;;;;;;5015653;28;20045;-76
2023/09/26 07:17:22;;;;;;;15.00;7.43;;;;;;;;;;5014333;28;20037;-76
2023/09/26 07:19:48;;;;;;;13.93;8.10;;;;;;;;;;5012933;28;20026;-76
2023/09/26 07:22:14;;;;;;;13.77;7.40;;;;;;;;;;5012963;28;20026;-76
2023/09/26 07:24:39;;;;;;;12.57;8.43;;;;;;;;;;5012841;28;20105;-76
2023/09/26 07:27:06;;;;;;;10.90;7.88;;;;;;;;;;5014682;28;20038;-76
2023/09/26 07:29:31;;;;;;;14.90;8.75;;;;;;;;;;5012959;28;20079;-76
2023/09/26 07:31:57;;;;;;;18.90;8.75;;;;;;;;;;5013878;28;20022;-76
2023/09/26 07:34:22;;;;;;;15.55;9.00;;;;;;;;;;5013993;28;20022;-77
2023/09/26 07:36:47;;;;;;;15.63;8.27;;;;;;;;;;5013923;28;20025;-76
2023/09/26 07:39:14;;;;;;;15.48;8.35;;;;;;;;;;5013904;28;20030;-76
2023/09/26 07:41:40;;;;;;;14.82;8.07;;;;;;;;;;5013770;28;20049;-76
2023/09/26 07:44:05;;;;;;;12.55;8.73;;;;;;;;;;5013744;28;20104;-76
2023/09/26 07:46:30;;;;;;;13.15;8.60;;;;;;;;;;5012738;28;20514;-76
2023/09/26 07:48:56;;;;;;;14.27;7.95;;;;;;;;;;5012224;28;20017;-76
2023/09/26 07:51:21;;;;;;;14.13;7.90;;;;;;;;;;5013844;28;20373;-76
2023/09/26 07:53:47;;;;;;;16.30;8.05;;;;;;;;;;5013823;28;20259;-76
2023/09/26 07:56:13;;;;;;;13.87;7.97;;;;;;;;;;5013618;28;20025;-76
2023/09/26 07:58:38;;;;;;;12.82;8.05;;;;;;;;;;5013818;28;20251;-75
2023/09/26 08:01:07;;;;;;;16.90;7.87;;;;;;;;;;5013389;28;20048;-76
2023/09/26 08:03:33;;;;;;;17.33;8.40;;;;;;;;;;5013726;28;20286;-75
2023/09/26 08:06:03;;;;;;;11.40;7.05;;;;;;;;;;5011994;28;20463;-76
2023/09/26 08:08:29;;;;;;;14.13;7.65;;;;;;;;;;5013412;28;20097;-76
2023/09/26 08:10:56;;;;;;;18.33;8.07;;;;;;;;;;5013385;28;20057;-76
2023/09/26 08:13:21;;;;;;;13.18;7.43;;;;;;;;;;5013064;28;20462;-77
2023/09/26 08:15:47;;;;;;;13.63;8.13;;;;;;;;;;5011914;28;20053;-77
2023/09/26 08:18:12;;;;;;;11.77;7.70;;;;;;;;;;5012314;28;20022;-77
2023/09/26 08:20:37;;;;;;;13.68;7.97;;;;;;;;;;5012458;28;20297;-76
2023/09/26 08:23:02;;;;;;;17.23;8.10;;;;;;;;;;5011776;28;20030;-76
2023/09/26 08:25:28;;;;;;;13.52;7.78;;;;;;;;;;5011864;28;20282;-76
2023/09/26 08:27:54;;;;;;;15.68;7.82;;;;;;;;;;5013056;28;20026;-79
2023/09/26 08:30:19;;;;;;;13.70;7.78;;;;;;;;;;5018797;28;20501;-76
2023/09/26 08:32:44;;;;;;;14.70;8.20;;;;;;;;;;5014238;28;20022;-76
2023/09/26 08:35:10;;;;;;;11.75;6.95;;;;;;;;;;5013417;28;20263;-76
2023/09/26 08:37:37;;;;;;;11.48;7.50;;;;;;;;;;5014285;28;20447;-77
2023/09/26 08:40:08;;;;;;;14.05;8.18;;;;;;;;;;5013433;28;20033;-77
2023/09/26 08:42:37;;;;;;;14.65;8.45;;;;;;;;;;5011975;28;20021;-77
2023/09/26 08:45:03;;;;;;;10.60;6.95;;;;;;;;;;5013525;28;20033;-77
2023/09/26 08:47:29;;;;;;;13.57;7.35;;;;;;;;;;5013402;28;20030;-77
2023/09/26 08:49:55;;;;;;;13.52;7.47;;;;;;;;;;5013468;28;20022;-75
2023/09/26 08:52:22;;;;;;;14.68;7.70;;;;;;;;;;5013079;28;20029;-76
2023/09/26 08:54:48;;;;;;;12.35;7.65;;;;;;;;;;5012082;28;20049;-76
2023/09/26 08:57:14;;;;;;;11.88;7.53;;;;;;;;;;5012967;28;20519;-76
2023/09/26 08:59:42;;;;;;;11.68;7.55;;;;;;;;;;5011905;28;20022;-76
2023/09/26 09:02:10;;;;;;;11.07;6.97;;;;;;;;;;5016959;28;20045;-76
2023/09/26 09:04:35;;;;;;;10.93;7.35;;;;;;;;;;5015441;28;20026;-76
2023/09/26 09:07:06;;;;;;;12.35;6.05;;;;;;;;;;5016989;28;20498;-76
2023/09/26 09:09:32;;;;;;;12.82;6.82;;;;;;;;;;5015602;28;20022;-76
2023/09/26 09:11:57;;;;;;;15.00;7.30;;;;;;;;;;5016611;28;20030;-75
2023/09/26 09:14:33;;;;;;;10.35;7.45;;;;;;;;;;5015941;28;20125;-76
2023/09/26 09:16:59;;;;;;;10.48;6.80;;;;;;;;;;5015359;28;20033;-75
2023/09/26 09:19:46;;;;;;;13.10;7.22;;;;;;;;;;5016597;28;20021;-75
2023/09/26 09:22:17;;;;;;;13.68;6.78;;;;;;;;;;5016342;28;20026;-75
2023/09/26 09:24:43;;;;;;;10.65;7.03;;;;;;;;;;5016415;28;20022;-76
2023/09/26 09:27:09;;;;;;;9.70;6.95;;;;;;;;;;5016306;28;20025;-76
2023/09/26 09:29:35;;;;;;;10.73;7.18;;;;;;;;;;5016285;28;20030;-76
2023/09/26 09:32:00;;;;;;;11.93;6.45;;;;;;;;;;5016318;28;20033;-75
2023/09/26 09:34:27;;;;;;;9.77;6.90;;;;;;;;;;5016597;28;20014;-75
2023/09/26 09:36:55;;;;;;;12.57;6.53;;;;;;;;;;5016227;28;20061;-75
2023/09/26 09:39:22;;;;;;;18.20;6.70;;;;;;;;;;5016480;28;20440;-75
2023/09/26 09:41:48;;;;;;;12.25;6.70;;;;;;;;;;5016328;28;20026;-77
2023/09/26 09:44:13;;;;;;;11.27;6.10;;;;;;;;;;5015978;28;20033;-75
2023/09/26 09:46:41;;;;;;;13.77;7.15;;;;;;;;;;5014888;28;20156;-75
2023/09/26 09:49:12;;;;;;;11.57;6.30;;;;;;;;;;5015887;28;20026;-75
2023/09/26 09:51:42;;;;;;;13.52;6.90;;;;;;;;;;5014473;28;20018;-76
2023/09/26 09:54:12;;;;;;;9.63;7.00;;;;;;;;;;5016179;28;20028;-76
2023/09/26 09:56:38;;;;;;;12.32;6.78;;;;;;;;;;5014633;28;20025;-76
2023/09/26 09:59:12;;;;;;;10.18;7.10;;;;;;;;;;5015861;28;20022;-75
2023/09/26 10:01:43;;;;;;;11.05;7.15;;;;;;;;;;5014433;28;20033;-76
2023/09/26 10:04:09;;;;;;;12.82;6.93;;;;;;;;;;5015769;28;20571;-75
2023/09/26 10:06:35;;;;;;;12.18;7.10;;;;;;;;;;5015964;28;20061;-75
2023/09/26 10:09:00;;;;;;;10.52;6.32;;;;;;;;;;5014442;28;20026;-76
2023/09/26 10:11:26;;;;;;;11.73;6.47;;;;;;;;;;5014189;28;20392;-76
2023/09/26 10:13:52;;;;;;;11.63;6.32;;;;;;;;;;5014320;28;20037;-76
2023/09/26 10:16:18;;;;;;;13.98;6.70;;;;;;;;;;5015554;28;20097;-76
2023/09/26 10:18:46;;;;;;;11.77;6.85;;;;;;;;;;5015402;28;20045;-76
2023/09/26 10:21:28;;;;;;;10.70;6.38;;;;;;;;;;5015183;28;20049;-76
2023/09/26 10:24:20;;;;;;;11.90;6.93;;;;;;;;;;5015265;28;20092;-77
2023/09/26 10:26:49;;;;;;;12.68;6.88;;;;;;;;;;5015179;28;20026;-77
2023/09/26 10:29:22;;;;;;;11.07;6.38;;;;;;;;;;5014187;28;20060;-75
2023/09/26 10:31:55;;;;;;;10.68;6.68;;;;;;;;;;5013753;28;20025;-76
2023/09/26 10:34:27;;;;;;;14.60;7.03;;;;;;;;;;5014029;28;20022;-76
2023/09/26 10:36:54;;;;;;;12.10;6.43;;;;;;;;;;5015277;28;20294;-76
2023/09/26 10:39:35;;;;;;;12.43;6.60;;;;;;;;;;5015951;28;20029;-76
2023/09/26 10:42:08;;;;;;;10.85;6.28;;;;;;;;;;5015661;28;20021;-78
2023/09/26 10:44:33;;;;;;;14.23;5.93;;;;;;;;;;5017094;28;20025;-77
2023/09/26 10:46:58;;;;;;;10.60;6.27;;;;;;;;;;5015087;28;20032;-76
2023/09/26 10:49:25;;;;;;;11.25;6.18;;;;;;;;;;5015543;28;20263;-77
2023/09/26 10:51:53;;;;;;;10.48;5.97;;;;;;;;;;5014823;28;20029;-78
2023/09/26 10:54:19;;;;;;;11.80;6.07;;;;;;;;;;5017394;28;20473;-77
2023/09/26 10:56:50;;;;;;;9.40;5.90;;;;;;;;;;5014791;28;20030;-74
2023/09/26 10:59:17;;;;;;;9.05;5.97;;;;;;;;;;5014569;28;20029;-74
2023/09/26 11:01:42;;;;;;;12.35;5.70;;;;;;;;;;5014330;28;20032;-75
2023/09/26 11:04:08;;;;;;;10.70;5.38;;;;;;;;;;5012500;28;20034;-74
2023/09/26 11:06:34;;;;;;;14.35;5.55;;;;;;;;;;5012407;28;20041;-74
2023/09/26 11:08:59;;;;;;;8.05;5.63;;;;;;;;;;5012535;28;20022;-75
2023/09/26 11:11:25;;;;;;;8.68;5.57;;;;;;;;;;5014240;28;20025;-72
2023/09/26 11:13:51;;;;;;;6.75;5.15;;;;;;;;;;5014333;28;20100;-75
2023/09/26 11:16:18;;;;;;;11.60;5.78;;;;;;;;;;5014890;28;20075;-75
2023/09/26 11:18:43;;;;;;;12.52;5.45;;;;;;;;;;5014564;28;20092;-74
2023/09/26 11:21:08;;;;;;;12.05;5.50;;;;;;;;;;5013447;28;20021;-75
2023/09/26 11:23:40;;;;;;;7.97;4.88;;;;;;;;;;5013975;28;20105;-75
2023/09/26 11:26:07;;;;;;;11.35;5.60;;;;;;;;;;5014642;28;20520;-75
2023/09/26 11:28:34;;;;;;;13.75;5.70;;;;;;;;;;5014171;28;20021;-77
2023/09/26 11:31:00;;;;;;;8.57;5.07;;;;;;;;;;5014253;28;20512;-75
2023/09/26 11:33:25;;;;;;;11.15;5.22;;;;;;;;;;5014305;28;20034;-75
2023/09/26 11:35:51;;;;;;;13.13;5.10;;;;;;;;;;5014095;28;20026;-75
2023/09/26 11:38:16;;;;;;;6.88;4.72;;;;;;;;;;5012722;28;20038;-75
2023/09/26 11:40:41;;;;;;;10.18;5.07;;;;;;;;;;5012505;28;20022;-75
2023/09/26 11:43:07;;;;;;;10.85;5.22;;;;;;;;;;5014358;28;20037;-75
2023/09/26 11:45:32;;;;;;;9.80;5.30;;;;;;;;;;5014789;28;20481;-77
2023/09/26 11:47:58;;;;;;;7.95;4.95;;;;;;;;;;5012807;28;20025;-74
2023/09/26 11:50:24;;;;;;;9.82;5.32;;;;;;;;;;5013697;28;20045;-76
2023/09/26 11:52:50;;;;;;;9.00;5.30;;;;;;;;;;5013951;28;20030;-74
2023/09/26 11:55:17;;;;;;;9.05;5.78;;;;;;;;;;5013685;28;20549;-74
2023/09/26 11:57:43;;;;;;;8.70;6.03;;;;;;;;;;5013547;28;20493;-74
2023/09/26 12:00:11;;;;;;;8.70;5.40;;;;;;;;;;5013479;28;20022;-74
2023/09/26 12:02:38;;;;;;;12.48;5.38;;;;;;;;;;5012161;28;20022;-75
2023/09/26 12:05:06;;;;;;;18.23;5.10;;;;;;;;;;5012140;28;20536;-75
2023/09/26 12:07:31;;;;;;;11.55;5.60;;;;;;;;;;5013430;28;20429;-75
2023/09/26 12:09:57;;;;;;;11.45;5.47;;;;;;;;;;5013346;28;20052;-74
2023/09/26 12:12:22;;;;;;;10.48;5.15;;;;;;;;;;5013338;28;20030;-75
2023/09/26 12:14:48;;;;;;;9.68;5.50;;;;;;;;;;5014067;28;20029;-75
2023/09/26 12:17:14;;;;;;;12.98;5.15;;;;;;;;;;5012043;28;20475;-75
2023/09/26 12:19:39;;;;;;;10.90;5.40;;;;;;;;;;5012605;28;20032;-75
2023/09/26 12:22:04;;;;;;;11.57;5.60;;;;;;;;;;5012253;28;20040;-77
2023/09/26 12:24:29;;;;;;;10.97;5.17;;;;;;;;;;5012929;28;20176;-75
2023/09/26 12:26:55;;;;;;;21.47;5.93;;;;;;;;;;5013262;28;20251;-74
2023/09/26 12:29:20;;;;;;;7.80;5.13;;;;;;;;;;5013247;28;20256;-75
2023/09/26 12:31:46;;;;;;;8.70;5.45;;;;;;;;;;5012987;28;20060;-74
2023/09/26 12:34:12;;;;;;;8.15;4.82;;;;;;;;;;5013098;28;20033;-75
2023/09/26 12:36:37;;;;;;;9.55;5.40;;;;;;;;;;5016429;28;20033;-75
2023/09/26 12:39:03;;;;;;;13.38;5.22;;;;;;;;;;5018174;28;20490;-77
2023/09/26 12:41:29;;;;;;;11.73;4.90;;;;;;;;;;5015931;28;20045;-75
2023/09/26 12:43:54;;;;;;;9.98;5.53;;;;;;;;;;5015775;28;20489;-75
2023/09/26 12:46:20;;;;;;;8.23;4.50;;;;;;;;;;5015796;28;20026;-75
2023/09/26 12:48:45;;;;;;;10.43;4.82;;;;;;;;;;5018019;28;20024;-76
2023/09/26 12:51:10;;;;;;;10.82;5.30;;;;;;;;;;5016185;28;20432;-75
2023/09/26 12:53:36;;;;;;;6.93;4.60;;;;;;;;;;5016074;28;20117;-76
2023/09/26 12:56:01;;;;;;;7.50;4.55;;;;;;;;;;5016339;28;20033;-76
2023/09/26 12:58:26;;;;;;;12.93;5.28;;;;;;;;;;5016174;28;20370;-76
2023/09/26 13:00:52;;;;;;;8.85;4.68;;;;;;;;;;5018891;28;20022;-79
2023/09/26 13:03:18;;;;;;;7.10;4.28;;;;;;;;;;5019161;28;20131;-78
2023/09/26 13:05:43;;;;;;;10.02;5.72;;;;;;;;;;5018945;28;20073;-78
2023/09/26 13:08:08;;;;;;;10.20;4.90;;;;;;;;;;5015506;28;20033;-77
2023/09/26 13:10:35;;;;;;;10.05;4.63;;;;;;;;;;5017345;28;20033;-77
2023/09/26 13:13:00;;;;;;;11.27;4.82;;;;;;;;;;5015312;28;20030;-77
2023/09/26 13:15:28;;;;;;;12.00;4.55;;;;;;;;;;5013946;28;20022;-77
2023/09/26 13:17:53;;;;;;;7.35;4.78;;;;;;;;;;5018093;28;20026;-78
2023/09/26 13:20:18;;;;;;;10.18;4.72;;;;;;;;;;5015406;28;20030;-77
2023/09/26 13:22:44;;;;;;;6.82;4.60;;;;;;;;;;5011970;28;20022;-77
2023/09/26 13:25:09;;;;;;;12.50;4.47;;;;;;;;;;5015182;28;20109;-76
2023/09/26 13:27:34;;;;;;;9.68;4.10;;;;;;;;;;5014226;28;20256;-77
2023/09/26 13:29:59;;;;;;;10.32;4.78;;;;;;;;;;5014305;28;20022;-77
2023/09/26 13:32:25;;;;;;;12.23;4.88;;;;;;;;;;5015347;28;20051;-77
2023/09/26 13:34:50;;;;;;;9.77;4.67;;;;;;;;;;5016769;28;20487;-77
2023/09/26 13:37:16;;;;;;;13.48;4.57;;;;;;;;;;5016178;28;20263;-77
2023/09/26 13:39:41;;;;;;;8.40;4.28;;;;;;;;;;5014923;28;20083;-77
2023/09/26 13:42:07;;;;;;;5.70;4.22;;;;;;;;;;5016056;28;20498;-76
2023/09/26 13:44:33;;;;;;;10.65;4.20;;;;;;;;;;5015941;28;20062;-77
2023/09/26 13:46:58;;;;;;;9.88;4.20;;;;;;;;;;5014732;28;20032;-77
2023/09/26 13:49:24;;;;;;;12.60;4.53;;;;;;;;;;5016903;28;20388;-77
2023/09/26 13:51:52;;;;;;;10.50;4.43;;;;;;;;;;5016898;28;20030;-76
2023/09/26 13:54:17;;;;;;;7.32;4.05;;;;;;;;;;5015001;28;20026;-77
2023/09/26 13:56:42;;;;;;;15.55;5.22;;;;;;;;;;5016132;28;20029;-76
2023/09/26 13:59:08;;;;;;;9.27;4.70;;;;;;;;;;5015837;28;20105;-77
2023/09/26 14:01:34;;;;;;;10.40;4.15;;;;;;;;;;5015574;28;20738;-78
2023/09/26 14:04:00;;;;;;;9.10;4.07;;;;;;;;;;5013124;28;20030;-77
2023/09/26 14:06:25;;;;;;;7.97;4.70;;;;;;;;;;5015822;28;20033;-77
2023/09/26 14:08:51;;;;;;;13.30;4.35;;;;;;;;;;5016071;28;20033;-76
2023/09/26 14:11:17;;;;;;;8.35;4.35;;;;;;;;;;5015583;28;20052;-76
2023/09/26 14:13:42;;;;;;;12.35;4.97;;;;;;;;;;5015623;28;20036;-76
2023/09/26 14:16:07;;;;;;;6.20;4.27;;;;;;;;;;5015473;28;20029;-76
2023/09/26 14:18:35;;;;;;;7.93;4.70;;;;;;;;;;5015496;28;20282;-76
2023/09/26 14:21:03;;;;;;;9.90;4.93;;;;;;;;;;5015486;28;20026;-76
2023/09/26 14:23:28;;;;;;;10.80;4.40;;;;;;;;;;5016167;28;20017;-77
2023/09/26 14:25:56;;;;;;;10.48;4.65;;;;;;;;;;5015452;28;20489;-77
2023/09/26 14:28:22;;;;;;;7.80;4.65;;;;;;;;;;5016130;28;20025;-77
2023/09/26 14:30:47;;;;;;;10.73;4.53;;;;;;;;;;5015235;28;20033;-77